Time;durP1;ratioP1;P1;durP2;ratioP2;P2;SDS_P1;SDS_P2;PMS_P1;PMS_P2;Temp;Humidity;BMP_temperature;BMP_pressure;BME280_temperature;BME280_humidity;BME280_pressure;Samples;Min_cycle;Max_cycle;Signal;HPM_P1;HPM_P2
2021/01/25 00:00:11;;;;;;;17.52;10.00;;;7.60;96.30;;;;;;5079165;28;20028;-78
2021/01/25 00:02:36;;;;;;;22.42;12.25;;;7.60;96.50;;;;;;5087796;28;20066;-78
2021/01/25 00:05:07;;;;;;;18.48;11.52;;;7.60;96.30;;;;;;5071774;28;20303;-79
2021/01/25 00:07:33;;;;;;;21.90;12.15;;;7.50;96.40;;;;;;5087295;28;20029;-78
2021/01/25 00:09:59;;;;;;;19.50;11.25;;;7.50;96.40;;;;;;5070103;28;20036;-77
2021/01/25 00:12:25;;;;;;;20.67;11.32;;;7.50;96.50;;;;;;5073109;28;20484;-78
2021/01/25 00:14:51;;;;;;;16.20;10.52;;;7.50;96.50;;;;;;5064832;28;20027;-78
2021/01/25 00:17:17;;;;;;;24.05;12.32;;;7.50;96.50;;;;;;5095523;28;20017;-79
2021/01/25 00:19:43;;;;;;;21.60;12.00;;;7.50;96.60;;;;;;5086205;28;20024;-79
2021/01/25 00:22:08;;;;;;;22.45;11.38;;;7.50;96.70;;;;;;5070493;28;20028;-78
2021/01/25 00:24:34;;;;;;;21.67;11.63;;;7.50;96.80;;;;;;5081573;28;20496;-78
2021/01/25 00:27:00;;;;;;;38.83;17.58;;;7.50;96.80;;;;;;5092743;28;20040;-78
2021/01/25 00:29:25;;;;;;;22.98;11.48;;;7.50;96.80;;;;;;5074874;28;20404;-78
2021/01/25 00:31:52;;;;;;;21.95;11.13;;;7.50;96.70;;;;;;5079372;28;20066;-78
2021/01/25 00:34:18;;;;;;;37.20;21.33;;;7.50;96.70;;;;;;5086851;28;20020;-79
2021/01/25 00:36:44;;;;;;;18.17;9.95;;;7.50;96.80;;;;;;5089162;28;20035;-78
2021/01/25 00:39:09;;;;;;;31.63;14.15;;;7.50;96.80;;;;;;5085093;28;20021;-78
2021/01/25 00:41:35;;;;;;;18.65;9.73;;;7.50;96.80;;;;;;5086600;28;20385;-78
2021/01/25 00:44:01;;;;;;;19.25;11.00;;;7.50;96.80;;;;;;5071142;28;20020;-78
2021/01/25 00:46:26;;;;;;;20.67;11.65;;;7.50;96.80;;;;;;5076524;28;20046;-77
2021/01/25 00:48:52;;;;;;;23.25;11.82;;;7.50;96.80;;;;;;5090673;28;20485;-78
2021/01/25 00:51:17;;;;;;;19.05;11.07;;;7.50;96.80;;;;;;5090434;28;20097;-79
2021/01/25 00:53:43;;;;;;;19.02;9.77;;;7.50;96.80;;;;;;5087723;28;20043;-77
2021/01/25 00:56:11;;;;;;;24.15;12.05;;;7.50;96.80;;;;;;5092313;28;20028;-78
2021/01/25 00:58:38;;;;;;;21.08;11.88;;;7.50;96.90;;;;;;5065736;28;20021;-77
2021/01/25 01:01:04;;;;;;;21.70;11.20;;;7.50;96.80;;;;;;5085981;28;20020;-78
2021/01/25 01:03:30;;;;;;;26.92;15.80;;;7.50;96.90;;;;;;5084443;28;20035;-78
2021/01/25 01:05:55;;;;;;;27.08;13.90;;;7.50;96.90;;;;;;5087034;28;20036;-78
2021/01/25 01:08:21;;;;;;;18.02;10.45;;;7.50;96.90;;;;;;5079801;28;20028;-78
2021/01/25 01:10:47;;;;;;;14.50;8.55;;;7.60;97.00;;;;;;5086808;28;20191;-79
2021/01/25 01:13:13;;;;;;;13.07;8.02;;;7.60;97.00;;;;;;5090249;28;20390;-79
2021/01/25 01:15:38;;;;;;;12.45;7.63;;;7.60;97.10;;;;;;5095112;28;20032;-79
2021/01/25 01:18:05;;;;;;;11.25;6.97;;;7.60;97.10;;;;;;5068290;28;20024;-78
2021/01/25 01:20:31;;;;;;;10.60;6.90;;;7.60;97.10;;;;;;5069093;28;20074;-79
2021/01/25 01:22:56;;;;;;;15.27;9.02;;;7.70;97.10;;;;;;5089130;28;20024;-78
2021/01/25 01:25:22;;;;;;;11.15;7.15;;;7.60;97.20;;;;;;5088745;28;20032;-76
2021/01/25 01:27:48;;;;;;;13.10;7.30;;;7.70;97.50;;;;;;5070322;28;20516;-77
2021/01/25 01:30:14;;;;;;;16.80;7.55;;;7.80;97.20;;;;;;5080297;28;20142;-77
2021/01/25 01:32:40;;;;;;;14.07;7.65;;;7.80;97.20;;;;;;5062414;28;20040;-77
2021/01/25 01:35:06;;;;;;;23.73;9.68;;;7.80;97.10;;;;;;5087315;28;20031;-78
2021/01/25 01:37:33;;;;;;;32.53;13.95;;;7.80;97.10;;;;;;5067439;28;20127;-77
2021/01/25 01:39:59;;;;;;;15.63;8.23;;;7.80;97.20;;;;;;5068198;28;20029;-78
2021/01/25 01:42:25;;;;;;;13.93;8.10;;;7.80;97.40;;;;;;5089931;28;20048;-78
2021/01/25 01:44:51;;;;;;;12.55;7.18;;;7.80;97.20;;;;;;5069658;28;20058;-78
2021/01/25 01:47:20;;;;;;;12.63;6.85;;;7.80;97.20;;;;;;5074498;28;20067;-78
2021/01/25 01:49:49;;;;;;;11.90;6.55;;;7.80;97.20;;;;;;5082307;28;20024;-79
2021/01/25 01:52:15;;;;;;;10.98;6.78;;;7.80;97.10;;;;;;5082377;28;20071;-76
2021/01/25 01:54:41;;;;;;;13.13;6.75;;;7.80;97.00;;;;;;5084507;28;20442;-78
2021/01/25 01:57:07;;;;;;;10.50;6.47;;;7.80;97.00;;;;;;5090055;28;20032;-79
2021/01/25 01:59:33;;;;;;;10.20;5.97;;;7.80;97.10;;;;;;5089637;28;20100;-78
2021/01/25 02:01:59;;;;;;;12.55;6.82;;;7.90;97.20;;;;;;5086825;28;20020;-78
2021/01/25 02:04:25;;;;;;;11.55;6.15;;;7.80;97.00;;;;;;5078664;28;20063;-77
2021/01/25 02:06:54;;;;;;;10.90;7.40;;;7.80;97.10;;;;;;5062009;28;20028;-78
2021/01/25 02:09:20;;;;;;;12.10;6.93;;;7.90;97.20;;;;;;5082002;28;20025;-78
2021/01/25 02:11:46;;;;;;;12.50;6.82;;;7.90;97.30;;;;;;5065150;28;20035;-78
2021/01/25 02:14:12;;;;;;;16.70;7.30;;;7.90;97.20;;;;;;5093681;28;20042;-78
2021/01/25 02:16:41;;;;;;;13.05;7.13;;;7.90;97.50;;;;;;5073720;28;20386;-77
2021/01/25 02:19:11;;;;;;;12.80;6.57;;;7.90;97.30;;;;;;5063553;28;20063;-77
2021/01/25 02:21:42;;;;;;;12.02;6.93;;;7.90;97.30;;;;;;5079980;28;20035;-77
2021/01/25 02:24:35;;;;;;;13.00;7.25;;;7.90;97.30;;;;;;5078993;28;20024;-78
2021/01/25 02:27:09;;;;;;;14.25;7.50;;;7.90;97.40;;;;;;5078238;28;20097;-78
2021/01/25 02:29:35;;;;;;;14.02;7.10;;;7.90;97.40;;;;;;5091618;28;20031;-78
2021/01/25 02:32:02;;;;;;;10.13;6.28;;;7.90;97.40;;;;;;5088835;28;20028;-78
2021/01/25 02:34:29;;;;;;;14.82;7.68;;;7.90;97.40;;;;;;5083844;28;20386;-78
2021/01/25 02:36:57;;;;;;;12.38;7.40;;;7.90;97.40;;;;;;5086265;28;20367;-77
2021/01/25 02:39:24;;;;;;;12.45;7.45;;;7.90;97.50;;;;;;5087645;28;20056;-78
2021/01/25 02:41:51;;;;;;;11.55;6.90;;;7.90;97.60;;;;;;5056601;28;20037;-73
2021/01/25 02:44:17;;;;;;;11.80;6.75;;;7.90;97.70;;;;;;5069799;28;20036;-73
2021/01/25 02:46:44;;;;;;;11.80;6.30;;;8.00;97.70;;;;;;5064205;28;20097;-78
2021/01/25 02:49:11;;;;;;;14.98;7.38;;;8.00;97.70;;;;;;5085224;28;20359;-79
2021/01/25 02:51:37;;;;;;;13.40;7.78;;;8.00;97.70;;;;;;5091201;28;20028;-78
2021/01/25 02:54:02;;;;;;;11.88;7.38;;;8.00;97.70;;;;;;5086376;28;21859;-77
2021/01/25 02:56:29;;;;;;;15.38;7.85;;;8.00;97.70;;;;;;5063546;28;20490;-78
2021/01/25 02:58:55;;;;;;;17.50;9.55;;;8.00;97.70;;;;;;5080703;28;20024;-76
2021/01/25 03:01:21;;;;;;;15.88;7.35;;;8.00;97.90;;;;;;5079357;28;20386;-76
2021/01/25 03:03:50;;;;;;;18.60;8.60;;;8.10;97.70;;;;;;5087617;28;20032;-77
2021/01/25 03:06:16;;;;;;;18.50;8.98;;;8.10;97.60;;;;;;5089190;28;20046;-78
2021/01/25 03:08:45;;;;;;;23.48;10.60;;;8.10;97.60;;;;;;5085064;28;20028;-78
2021/01/25 03:11:11;;;;;;;19.52;11.75;;;8.10;97.50;;;;;;5083129;28;20468;-78
2021/01/25 03:13:37;;;;;;;23.17;10.85;;;8.10;97.50;;;;;;5077905;28;20044;-78
2021/01/25 03:16:03;;;;;;;22.52;11.77;;;8.10;97.50;;;;;;5076059;28;20035;-78
2021/01/25 03:18:28;;;;;;;19.85;9.85;;;8.10;97.30;;;;;;5068056;28;20107;-78
2021/01/25 03:20:55;;;;;;;28.27;12.60;;;8.10;97.30;;;;;;5080572;28;20035;-78
2021/01/25 03:23:21;;;;;;;26.52;14.07;;;8.10;97.30;;;;;;5079125;28;20032;-77
2021/01/25 03:25:47;;;;;;;23.17;10.85;;;8.10;97.30;;;;;;5062820;28;20139;-76
2021/01/25 03:28:13;;;;;;;23.27;12.07;;;8.10;97.20;;;;;;5060655;28;20111;-78
2021/01/25 03:30:40;;;;;;;28.77;12.95;;;8.10;97.20;;;;;;5090137;28;20428;-78
2021/01/25 03:33:06;;;;;;;25.92;13.27;;;8.10;97.10;;;;;;5069374;28;20500;-78
2021/01/25 03:35:32;;;;;;;28.70;14.55;;;8.10;97.10;;;;;;5067109;28;20690;-78
2021/01/25 03:37:58;;;;;;;26.67;11.98;;;8.20;97.10;;;;;;5066198;28;20062;-78
2021/01/25 03:40:24;;;;;;;28.55;13.55;;;8.20;97.20;;;;;;5086753;28;20056;-78
2021/01/25 03:42:49;;;;;;;25.80;12.55;;;8.10;97.10;;;;;;5079390;28;20025;-76
2021/01/25 03:45:15;;;;;;;25.83;13.43;;;8.10;97.00;;;;;;5062196;28;20025;-77
2021/01/25 03:47:41;;;;;;;26.55;12.27;;;8.10;97.00;;;;;;5052544;28;20102;-78
2021/01/25 03:50:07;;;;;;;27.77;13.18;;;8.10;97.00;;;;;;5054874;28;20096;-79
2021/01/25 03:52:33;;;;;;;19.13;10.75;;;8.20;96.90;;;;;;5072556;28;20040;-78
2021/01/25 03:54:59;;;;;;;25.10;13.38;;;8.20;96.80;;;;;;5066639;28;20408;-79
2021/01/25 03:57:24;;;;;;;25.98;13.43;;;8.10;96.60;;;;;;5054808;28;20036;-78
2021/01/25 03:59:50;;;;;;;27.63;13.48;;;8.10;96.50;;;;;;5048886;28;20032;-77
2021/01/25 04:02:16;;;;;;;24.25;12.70;;;8.10;96.40;;;;;;5070431;28;20028;-78
2021/01/25 04:04:42;;;;;;;25.67;11.52;;;8.10;96.30;;;;;;5061461;28;20028;-78
2021/01/25 04:07:09;;;;;;;27.85;14.20;;;8.10;96.30;;;;;;5062257;28;20344;-78
2021/01/25 04:09:35;;;;;;;22.77;11.35;;;8.10;96.20;;;;;;5065269;28;20029;-77
2021/01/25 04:12:01;;;;;;;26.63;13.73;;;8.10;96.20;;;;;;5052198;28;20055;-77
2021/01/25 04:14:27;;;;;;;30.98;14.93;;;8.10;96.20;;;;;;5064664;28;20040;-78
2021/01/25 04:16:52;;;;;;;31.23;14.25;;;8.10;96.30;;;;;;5047719;28;20453;-78
2021/01/25 04:19:18;;;;;;;34.20;16.08;;;8.10;96.40;;;;;;5061222;28;20071;-78
2021/01/25 04:21:44;;;;;;;26.05;14.13;;;8.10;96.30;;;;;;5072467;28;20032;-77
2021/01/25 04:24:10;;;;;;;28.58;14.73;;;8.10;96.30;;;;;;5065120;28;20509;-78
2021/01/25 04:26:41;;;;;;;30.25;15.07;;;8.10;96.30;;;;;;5041789;28;20024;-77
2021/01/25 04:29:10;;;;;;;27.48;13.68;;;8.00;96.20;;;;;;5050552;28;20115;-80
2021/01/25 04:31:36;;;;;;;26.67;13.27;;;8.00;96.10;;;;;;5059096;28;20395;-75
2021/01/25 04:34:03;;;;;;;27.13;13.48;;;8.10;96.10;;;;;;5061705;28;20037;-77
2021/01/25 04:36:29;;;;;;;27.42;13.45;;;8.00;96.10;;;;;;5063974;28;20053;-77
2021/01/25 04:38:55;;;;;;;29.65;14.45;;;8.00;96.10;;;;;;5072699;28;20036;-77
2021/01/25 04:41:21;;;;;;;26.58;14.43;;;8.00;96.10;;;;;;5065079;28;20036;-76
2021/01/25 04:43:48;;;;;;;25.55;13.00;;;8.00;96.20;;;;;;5063633;28;20021;-77
2021/01/25 04:46:14;;;;;;;32.50;13.93;;;8.00;96.30;;;;;;5071578;28;20036;-76
2021/01/25 04:48:44;;;;;;;25.25;12.57;;;8.00;96.20;;;;;;5079371;28;20379;-78
2021/01/25 04:51:11;;;;;;;32.33;14.07;;;8.00;96.10;;;;;;5076227;28;20055;-78
2021/01/25 04:53:38;;;;;;;26.02;12.85;;;8.00;96.10;;;;;;5092823;28;20054;-74
2021/01/25 04:56:05;;;;;;;26.58;13.48;;;8.00;96.00;;;;;;5083052;28;20024;-77
2021/01/25 04:58:31;;;;;;;25.08;12.65;;;8.00;95.90;;;;;;5087199;28;20378;-77
2021/01/25 05:00:58;;;;;;;24.63;10.75;;;8.00;95.90;;;;;;5089681;28;20032;-77
2021/01/25 05:03:24;;;;;;;24.73;13.70;;;8.00;95.90;;;;;;5088553;28;20024;-77
2021/01/25 05:05:50;;;;;;;22.73;12.73;;;8.00;95.80;;;;;;5090067;28;20067;-72
2021/01/25 05:08:15;;;;;;;20.15;11.07;;;8.00;95.70;;;;;;5092943;28;20600;-75
2021/01/25 05:10:41;;;;;;;23.75;11.52;;;8.00;95.60;;;;;;5067934;28;20424;-76
2021/01/25 05:13:07;;;;;;;23.30;12.57;;;8.00;95.50;;;;;;5081424;28;20089;-76
2021/01/25 05:15:35;;;;;;;23.33;11.60;;;8.00;95.40;;;;;;5081305;28;20055;-75
2021/01/25 05:18:12;;;;;;;24.58;11.52;;;8.00;95.30;;;;;;5087185;28;20028;-74
2021/01/25 05:20:38;;;;;;;26.30;14.32;;;8.00;95.30;;;;;;5072191;28;20034;-81
2021/01/25 05:23:15;;;;;;;24.58;12.38;;;7.90;95.20;;;;;;5074792;28;20024;-78
2021/01/25 05:25:42;;;;;;;24.15;12.13;;;8.00;95.30;;;;;;5060896;28;20528;-81
2021/01/25 05:28:19;;;;;;;24.73;12.98;;;8.00;95.20;;;;;;5069778;28;20048;-81
2021/01/25 05:30:46;;;;;;;20.38;10.35;;;7.90;95.10;;;;;;5086135;28;20074;-80
2021/01/25 05:33:12;;;;;;;25.00;12.43;;;7.90;95.00;;;;;;5065423;28;20039;-78
2021/01/25 05:35:38;;;;;;;23.38;13.60;;;7.90;94.80;;;;;;5064132;28;20031;-78
2021/01/25 05:38:09;;;;;;;23.48;12.85;;;7.90;94.70;;;;;;5089273;28;20047;-81
2021/01/25 05:40:37;;;;;;;21.00;11.63;;;7.90;94.70;;;;;;5062103;28;20056;-75
2021/01/25 05:43:30;;;;;;;22.23;12.07;;;7.80;94.60;;;;;;5092924;28;20024;-76
2021/01/25 05:46:06;;;;;;;23.25;13.25;;;7.80;94.50;;;;;;5063882;28;20122;-80
2021/01/25 05:48:32;;;;;;;25.27;10.35;;;7.80;94.40;;;;;;5071779;28;20040;-72
2021/01/25 05:51:14;;;;;;;23.67;11.88;;;7.80;94.30;;;;;;5086058;28;20077;-76
2021/01/25 05:53:42;;;;;;;25.75;11.90;;;7.70;94.20;;;;;;5065654;28;20032;-81
2021/01/25 05:56:09;;;;;;;18.15;9.40;;;7.70;94.30;;;;;;5082896;28;20474;-82
2021/01/25 05:58:35;;;;;;;22.00;10.63;;;7.70;94.30;;;;;;5076081;28;20051;-79
2021/01/25 06:01:02;;;;;;;20.40;11.13;;;7.70;94.50;;;;;;5072015;28;20027;-82
2021/01/25 06:03:30;;;;;;;21.15;10.80;;;7.70;94.20;;;;;;5072354;28;20024;-83
2021/01/25 06:05:56;;;;;;;25.25;12.32;;;7.70;94.20;;;;;;5085895;28;20024;-76
2021/01/25 06:08:53;;;;;;;25.80;12.35;;;7.70;94.20;;;;;;5088987;28;20111;-79
2021/01/25 06:11:31;;;;;;;27.92;13.15;;;7.70;94.40;;;;;;5061776;28;20135;-81
2021/01/25 06:14:11;;;;;;;25.35;13.65;;;7.70;94.30;;;;;;5088741;28;20034;-80
2021/01/25 06:16:37;;;;;;;25.17;13.05;;;7.70;94.30;;;;;;5089382;28;20016;-80
2021/01/25 06:19:08;;;;;;;25.52;12.07;;;7.70;94.30;;;;;;5089987;28;20058;-84
2021/01/25 06:21:39;;;;;;;24.85;12.05;;;7.70;94.30;;;;;;5063987;28;20374;-81
2021/01/25 06:24:06;;;;;;;24.15;12.38;;;7.70;94.30;;;;;;5093423;28;20131;-77
2021/01/25 06:26:34;;;;;;;23.42;13.27;;;7.70;94.30;;;;;;5068427;28;20059;-81
2021/01/25 06:29:05;;;;;;;26.40;12.00;;;7.80;94.50;;;;;;5079151;28;20438;-80
2021/01/25 06:31:39;;;;;;;20.58;11.60;;;7.80;94.30;;;;;;5061975;28;20466;-81
2021/01/25 06:34:10;;;;;;;24.80;13.77;;;7.80;94.20;;;;;;5082887;28;20036;-84
2021/01/25 06:36:38;;;;;;;25.77;13.60;;;7.80;94.10;;;;;;5065231;28;20024;-78
2021/01/25 06:39:06;;;;;;;23.92;12.20;;;7.80;94.20;;;;;;5068148;28;20064;-77
2021/01/25 06:41:39;;;;;;;19.20;11.20;;;7.80;94.20;;;;;;5075409;28;20107;-76
2021/01/25 06:44:06;;;;;;;18.42;10.85;;;7.80;94.20;;;;;;5092877;28;20077;-84
2021/01/25 06:46:37;;;;;;;20.73;10.27;;;7.90;94.20;;;;;;5068266;28;20078;-74
2021/01/25 06:49:06;;;;;;;27.38;13.77;;;7.90;94.30;;;;;;5072476;28;20037;-80
2021/01/25 06:51:32;;;;;;;32.28;14.55;;;7.90;94.30;;;;;;5050437;28;20466;-78
2021/01/25 06:54:02;;;;;;;23.25;13.73;;;7.90;94.20;;;;;;5049024;28;20037;-78
2021/01/25 06:56:55;;;;;;;30.83;16.35;;;7.90;94.30;;;;;;5045838;28;20024;-79
2021/01/25 06:59:30;;;;;;;32.05;16.40;;;8.00;94.20;;;;;;5066903;28;20115;-78
2021/01/25 07:01:56;;;;;;;26.67;13.63;;;8.00;94.20;;;;;;5071805;28;20348;-76
2021/01/25 07:04:24;;;;;;;28.60;16.17;;;8.00;94.10;;;;;;5072196;28;20032;-78
2021/01/25 07:06:54;;;;;;;27.70;15.52;;;8.00;94.00;;;;;;5048805;28;20368;-79
2021/01/25 07:09:28;;;;;;;30.25;17.25;;;8.00;93.90;;;;;;5072397;28;20029;-79
2021/01/25 07:11:57;;;;;;;29.20;14.98;;;8.00;94.10;;;;;;5071929;28;20028;-78
2021/01/25 07:14:24;;;;;;;30.65;17.23;;;8.00;94.10;;;;;;5072644;28;20398;-79
2021/01/25 07:16:53;;;;;;;31.25;16.55;;;8.00;94.00;;;;;;5056806;28;20020;-79
2021/01/25 07:19:20;;;;;;;38.55;20.25;;;8.00;93.90;;;;;;5052426;28;20027;-79
2021/01/25 07:21:48;;;;;;;26.17;13.40;;;8.00;93.80;;;;;;5052729;28;20119;-79
2021/01/25 07:24:36;;;;;;;18.85;11.00;;;8.00;93.80;;;;;;5057194;28;20021;-80
2021/01/25 07:27:02;;;;;;;26.17;14.23;;;8.00;93.70;;;;;;5077784;28;20037;-80
2021/01/25 07:29:28;;;;;;;24.13;13.52;;;7.90;93.80;;;;;;5052684;28;20098;-79
2021/01/25 07:31:55;;;;;;;30.17;15.57;;;7.90;94.00;;;;;;5078788;28;20458;-80
2021/01/25 07:34:21;;;;;;;28.92;17.70;;;7.90;94.00;;;;;;5079264;28;20092;-80
2021/01/25 07:36:47;;;;;;;28.55;15.50;;;7.90;94.10;;;;;;5079861;28;20063;-79
2021/01/25 07:39:18;;;;;;;30.63;15.00;;;7.90;94.10;;;;;;5079199;28;20047;-80
2021/01/25 07:41:45;;;;;;;32.53;17.45;;;7.90;94.10;;;;;;5061829;28;20016;-80
2021/01/25 07:44:13;;;;;;;44.97;22.63;;;7.90;94.10;;;;;;5078875;28;20036;-79
2021/01/25 07:46:40;;;;;;;33.58;19.25;;;7.80;94.20;;;;;;5069035;28;20378;-80
2021/01/25 07:49:06;;;;;;;35.58;18.83;;;7.80;94.50;;;;;;5099533;28;20020;-77
2021/01/25 07:51:33;;;;;;;24.70;13.15;;;7.80;94.40;;;;;;5099421;28;20035;-80
2021/01/25 07:54:00;;;;;;;21.25;12.10;;;7.80;94.40;;;;;;5099351;28;20428;-79
2021/01/25 07:56:26;;;;;;;24.70;11.18;;;7.90;94.50;;;;;;5099286;28;20020;-80
2021/01/25 07:59:07;;;;;;;32.42;17.08;;;7.90;94.60;;;;;;5081204;28;20024;-79
2021/01/25 08:01:49;;;;;;;34.22;19.80;;;8.00;94.70;;;;;;5081191;28;20064;-80
2021/01/25 08:04:20;;;;;;;25.20;14.30;;;8.00;94.70;;;;;;5099365;28;20107;-80
2021/01/25 08:06:47;;;;;;;31.27;18.63;;;8.00;94.70;;;;;;5081284;28;20503;-80
2021/01/25 08:09:18;;;;;;;29.25;16.20;;;8.00;94.70;;;;;;5081153;28;20470;-80
2021/01/25 08:11:44;;;;;;;43.90;25.77;;;8.00;94.70;;;;;;5099518;28;20048;-80
2021/01/25 08:14:48;;;;;;;46.80;29.77;;;8.10;94.70;;;;;;5081191;28;20032;-80
2021/01/25 08:17:30;;;;;;;29.33;18.00;;;8.10;94.70;;;;;;5048901;28;20355;-81
2021/01/25 08:20:19;;;;;;;28.98;18.00;;;8.10;94.70;;;;;;5094702;28;20032;-80
2021/01/25 08:22:58;;;;;;;23.90;14.48;;;8.10;94.70;;;;;;5081361;28;20032;-80
2021/01/25 08:25:28;;;;;;;19.35;11.07;;;8.20;94.80;;;;;;5099183;28;20016;-80
2021/01/25 08:28:05;;;;;;;11.75;6.28;;;8.20;94.70;;;;;;5098074;28;20049;-79
2021/01/25 08:30:43;;;;;;;13.55;8.45;;;8.20;94.50;;;;;;5077609;28;20024;-79
2021/01/25 08:33:11;;;;;;;17.13;9.40;;;8.20;94.50;;;;;;5077864;28;20036;-79
2021/01/25 08:35:37;;;;;;;12.75;7.47;;;8.30;94.70;;;;;;5095689;28;20024;-79
2021/01/25 08:38:09;;;;;;;26.73;14.10;;;8.40;94.50;;;;;;5077663;28;20437;-79
2021/01/25 08:40:37;;;;;;;23.90;13.43;;;8.40;94.50;;;;;;5077898;28;20472;-73
2021/01/25 08:43:04;;;;;;;18.58;11.57;;;8.50;94.80;;;;;;5082535;28;20039;-80
2021/01/25 08:45:32;;;;;;;20.00;12.95;;;8.70;94.80;;;;;;5096250;28;20110;-80
2021/01/25 08:48:06;;;;;;;29.35;17.25;;;8.80;94.20;;;;;;5095479;28;20044;-79
2021/01/25 08:50:31;;;;;;;22.55;14.75;;;8.90;93.80;;;;;;5077616;28;20020;-79
2021/01/25 08:53:04;;;;;;;14.02;8.50;;;8.90;93.50;;;;;;5095440;28;20481;-80
2021/01/25 08:55:41;;;;;;;15.88;9.70;;;8.90;92.90;;;;;;5095629;28;20024;-79
2021/01/25 08:58:29;;;;;;;14.25;8.30;;;8.90;92.90;;;;;;5095344;28;20031;-79
2021/01/25 09:00:56;;;;;;;20.30;12.02;;;9.00;92.80;;;;;;5095743;28;20070;-79
2021/01/25 09:03:23;;;;;;;16.83;9.25;;;9.00;92.90;;;;;;5076957;28;20463;-79
2021/01/25 09:05:54;;;;;;;34.03;18.13;;;9.00;92.70;;;;;;5077455;28;20370;-79
2021/01/25 09:08:21;;;;;;;41.80;22.42;;;9.00;92.80;;;;;;5095438;28;20102;-80
2021/01/25 09:10:47;;;;;;;45.22;24.90;;;9.00;92.40;;;;;;5095477;28;20043;-80
2021/01/25 09:13:13;;;;;;;34.40;19.63;;;9.00;91.90;;;;;;5076836;28;20088;-80
2021/01/25 09:15:39;;;;;;;38.42;20.98;;;8.90;92.00;;;;;;5077274;28;20028;-79
2021/01/25 09:18:07;;;;;;;28.38;15.10;;;8.90;91.90;;;;;;5076495;28;20492;-79
2021/01/25 09:20:33;;;;;;;34.42;19.75;;;8.80;91.90;;;;;;5095727;28;20378;-80
2021/01/25 09:22:59;;;;;;;21.90;12.95;;;8.80;92.10;;;;;;5095274;28;20059;-80
2021/01/25 09:25:26;;;;;;;18.67;9.82;;;8.80;92.40;;;;;;5094917;28;20012;-80
2021/01/25 09:27:51;;;;;;;17.73;9.65;;;8.90;92.50;;;;;;5076697;28;20462;-79
2021/01/25 09:30:18;;;;;;;32.10;18.10;;;8.90;92.10;;;;;;5094455;28;20027;-79
2021/01/25 09:32:44;;;;;;;19.23;9.43;;;8.90;92.00;;;;;;5094876;28;20123;-79
2021/01/25 09:35:12;;;;;;;17.88;9.20;;;9.00;92.10;;;;;;5076646;28;20127;-79
2021/01/25 09:37:38;;;;;;;23.13;12.05;;;9.00;91.80;;;;;;5094754;28;20077;-79
2021/01/25 09:40:06;;;;;;;18.75;10.95;;;9.00;92.00;;;;;;5076500;28;20024;-79
2021/01/25 09:42:32;;;;;;;17.38;8.98;;;9.00;92.00;;;;;;5094638;28;20024;-79
2021/01/25 09:44:58;;;;;;;12.77;5.90;;;9.00;91.90;;;;;;5094644;28;20016;-78
2021/01/25 09:47:24;;;;;;;19.40;10.07;;;9.00;91.70;;;;;;5094425;28;20431;-77
2021/01/25 09:49:50;;;;;;;13.68;7.80;;;8.90;91.80;;;;;;5094437;28;20020;-77
2021/01/25 09:52:15;;;;;;;15.70;8.48;;;8.90;91.90;;;;;;5094855;28;20023;-79
2021/01/25 09:54:42;;;;;;;15.98;8.98;;;8.90;92.10;;;;;;5094518;28;20466;-79
2021/01/25 09:57:08;;;;;;;18.45;9.38;;;8.90;92.00;;;;;;5094496;28;20466;-79
2021/01/25 09:59:34;;;;;;;23.50;11.88;;;8.90;92.10;;;;;;5075847;28;20024;-78
2021/01/25 10:02:00;;;;;;;14.57;8.73;;;9.00;92.30;;;;;;5076022;28;20023;-78
2021/01/25 10:04:26;;;;;;;18.15;8.38;;;9.00;92.00;;;;;;5094364;28;20028;-77
2021/01/25 10:06:51;;;;;;;17.70;9.25;;;9.00;91.90;;;;;;5094398;28;20486;-78
2021/01/25 10:09:17;;;;;;;16.17;7.90;;;9.00;92.00;;;;;;5076009;28;20056;-78
2021/01/25 10:11:44;;;;;;;15.30;8.02;;;9.00;91.90;;;;;;5094108;28;20066;-79
2021/01/25 10:14:10;;;;;;;13.77;8.30;;;8.90;92.00;;;;;;5093713;28;20039;-78
2021/01/25 10:16:35;;;;;;;17.98;8.52;;;8.90;92.10;;;;;;5093596;28;20032;-78
2021/01/25 10:19:01;;;;;;;17.13;9.10;;;8.90;92.10;;;;;;5093999;28;20027;-79
2021/01/25 10:21:27;;;;;;;16.38;9.73;;;9.00;92.10;;;;;;5093674;28;20032;-78
2021/01/25 10:23:53;;;;;;;15.68;8.85;;;9.00;92.20;;;;;;5093579;28;20032;-78
2021/01/25 10:26:20;;;;;;;22.52;13.25;;;9.00;92.20;;;;;;5093832;28;20059;-79
2021/01/25 10:28:49;;;;;;;26.80;14.43;;;9.00;92.20;;;;;;5093578;28;20077;-78
2021/01/25 10:31:17;;;;;;;26.85;16.08;;;8.90;91.30;;;;;;5075771;28;20025;-79
2021/01/25 10:33:43;;;;;;;30.20;17.73;;;8.70;91.00;;;;;;5075198;28;20443;-79
2021/01/25 10:36:09;;;;;;;29.25;17.73;;;8.60;91.00;;;;;;5074888;28;20020;-80
2021/01/25 10:38:35;;;;;;;39.65;20.40;;;8.40;90.60;;;;;;5093717;28;20047;-80
2021/01/25 10:41:01;;;;;;;26.45;15.82;;;8.30;90.90;;;;;;5075361;28;20523;-80
2021/01/25 10:43:27;;;;;;;22.25;13.23;;;8.20;91.30;;;;;;5075191;28;20036;-80
2021/01/25 10:45:53;;;;;;;27.52;15.15;;;8.20;91.40;;;;;;5074793;28;20031;-79
2021/01/25 10:48:18;;;;;;;30.23;17.30;;;8.20;91.70;;;;;;5093999;28;20032;-79
2021/01/25 10:50:44;;;;;;;36.33;18.70;;;8.20;91.90;;;;;;5075576;28;20428;-78
2021/01/25 10:53:10;;;;;;;30.98;16.52;;;8.20;91.70;;;;;;5074232;28;20028;-78
2021/01/25 10:55:35;;;;;;;34.35;18.67;;;8.20;91.40;;;;;;5074997;28;20051;-79
2021/01/25 10:58:01;;;;;;;42.17;22.63;;;8.20;91.20;;;;;;5093143;28;20101;-78
2021/01/25 11:00:28;;;;;;;38.28;20.88;;;8.10;91.20;;;;;;5093543;28;20058;-78
2021/01/25 11:02:54;;;;;;;46.28;25.17;;;8.10;91.10;;;;;;5093200;28;20032;-79
2021/01/25 11:05:23;;;;;;;42.72;24.42;;;8.00;91.30;;;;;;5093413;28;20027;-78
2021/01/25 11:07:49;;;;;;;38.50;20.65;;;8.00;91.50;;;;;;5092890;28;20028;-78
2021/01/25 11:10:19;;;;;;;52.72;25.50;;;8.00;91.60;;;;;;5093361;28;20036;-79
2021/01/25 11:12:45;;;;;;;32.35;15.77;;;8.10;91.90;;;;;;5093304;28;20032;-79
2021/01/25 11:15:12;;;;;;;27.25;13.90;;;8.10;92.50;;;;;;5074974;28;20064;-79
2021/01/25 11:17:38;;;;;;;32.30;16.33;;;8.30;93.30;;;;;;5093409;28;20024;-79
2021/01/25 11:20:05;;;;;;;30.48;14.95;;;8.50;93.50;;;;;;5074836;28;20093;-79
2021/01/25 11:22:31;;;;;;;37.63;18.85;;;8.70;93.60;;;;;;5075031;28;20028;-79
2021/01/25 11:24:56;;;;;;;39.28;18.85;;;8.70;93.50;;;;;;5074843;28;20035;-79
2021/01/25 11:27:22;;;;;;;34.90;17.92;;;8.80;93.30;;;;;;5074989;28;20030;-80
2021/01/25 11:29:48;;;;;;;34.83;18.58;;;8.80;93.00;;;;;;5093194;28;20024;-79
2021/01/25 11:32:14;;;;;;;36.10;17.55;;;8.80;92.60;;;;;;5092637;28;20016;-80
2021/01/25 11:34:40;;;;;;;45.65;23.88;;;8.70;92.60;;;;;;5092857;28;20378;-79
2021/01/25 11:37:07;;;;;;;43.70;24.10;;;8.70;92.50;;;;;;5092905;28;20054;-79
2021/01/25 11:39:32;;;;;;;48.60;27.48;;;8.60;91.80;;;;;;5093035;28;20055;-79
2021/01/25 11:41:59;;;;;;;42.65;22.30;;;8.40;91.40;;;;;;5092638;28;20494;-80
2021/01/25 11:44:25;;;;;;;41.42;24.13;;;8.20;91.00;;;;;;5092548;28;20073;-79
2021/01/25 11:46:51;;;;;;;61.90;31.90;;;8.00;91.00;;;;;;5093369;28;20119;-80
2021/01/25 11:49:18;;;;;;;67.47;33.00;;;7.90;91.10;;;;;;5092696;28;20032;-80
2021/01/25 11:51:44;;;;;;;52.42;24.35;;;7.70;91.20;;;;;;5092870;28;20478;-80
2021/01/25 11:54:11;;;;;;;36.58;18.30;;;7.50;91.00;;;;;;5092402;28;20067;-79
2021/01/25 11:56:37;;;;;;;41.03;20.65;;;7.30;90.60;;;;;;5078514;28;20024;-80
2021/01/25 11:59:03;;;;;;;49.08;25.67;;;7.10;90.40;;;;;;5092808;28;20089;-80
2021/01/25 12:01:29;;;;;;;43.47;22.27;;;6.90;90.60;;;;;;5074447;28;20016;-80
2021/01/25 12:03:54;;;;;;;40.67;20.23;;;6.70;90.90;;;;;;5093484;28;20027;-77
2021/01/25 12:06:20;;;;;;;39.60;20.90;;;6.70;91.30;;;;;;5096451;28;20380;-80
2021/01/25 12:08:46;;;;;;;37.80;19.75;;;6.60;91.40;;;;;;5096426;28;20043;-80
2021/01/25 12:11:12;;;;;;;39.03;22.15;;;6.50;91.50;;;;;;5078338;28;20066;-76
2021/01/25 12:13:39;;;;;;;42.45;21.65;;;6.40;91.70;;;;;;5078362;28;20457;-79
2021/01/25 12:16:05;;;;;;;43.97;21.92;;;6.40;91.80;;;;;;5096467;28;20035;-79
2021/01/25 12:18:31;;;;;;;50.60;24.80;;;6.30;91.90;;;;;;5078110;28;20074;-79
2021/01/25 12:20:57;;;;;;;47.13;22.38;;;6.30;92.10;;;;;;5078105;28;20024;-79
2021/01/25 12:23:24;;;;;;;47.78;23.58;;;6.30;92.30;;;;;;5096038;28;20103;-79
2021/01/25 12:25:49;;;;;;;48.80;23.42;;;6.30;92.50;;;;;;5077997;28;20027;-71
2021/01/25 12:28:16;;;;;;;51.30;23.23;;;6.30;92.80;;;;;;5096279;28;20032;-79
2021/01/25 12:30:42;;;;;;;51.90;24.38;;;6.30;93.20;;;;;;5078024;28;20374;-80
2021/01/25 12:33:08;;;;;;;55.95;27.25;;;6.40;93.40;;;;;;5095942;28;20038;-80
2021/01/25 12:35:34;;;;;;;61.55;31.02;;;6.50;93.80;;;;;;5095865;28;20111;-80
2021/01/25 12:38:00;;;;;;;59.67;25.80;;;6.60;94.10;;;;;;5095827;28;20447;-80
2021/01/25 12:40:26;;;;;;;60.00;29.77;;;6.80;94.30;;;;;;5096464;28;20442;-79
2021/01/25 12:42:52;;;;;;;61.00;26.00;;;6.90;94.30;;;;;;5095866;28;20107;-80